Time;durP1;ratioP1;P1;durP2;ratioP2;P2;SDS_P1;SDS_P2;PMS_P1;PMS_P2;Temp;Humidity;BMP_temperature;BMP_pressure;BME280_temperature;BME280_humidity;BME280_pressure;Samples;Min_cycle;Max_cycle;Signal;HPM_P1;HPM_P2
2023/04/30 00:02:58;;;;;;;16.90;8.70;;;;;;;10.41;67.55;100317.47;30860097;28;114361;-63
2023/04/30 00:17:58;;;;;;;17.80;7.63;;;;;;;10.31;67.19;100325.59;30858943;28;105163;-63
2023/04/30 00:32:59;;;;;;;11.75;8.00;;;;;;;10.18;67.63;100322.59;30856628;28;97043;-63
2023/04/30 00:47:59;;;;;;;11.70;8.65;;;;;;;10.11;66.99;100344.53;30855402;28;97349;-62
2023/04/30 01:03:00;;;;;;;12.45;8.35;;;;;;;10.03;66.96;100351.69;30856048;28;96733;-62
2023/04/30 01:18:03;;;;;;;11.90;7.90;;;;;;;9.99;66.75;100367.13;30855042;28;96698;-63
2023/04/30 01:33:03;;;;;;;12.00;8.87;;;;;;;9.90;66.77;100378.75;30853641;28;97048;-62
2023/04/30 01:48:15;;;;;;;13.10;8.15;;;;;;;9.73;66.71;100392.00;30872022;28;97451;-63
2023/04/30 02:03:16;;;;;;;13.30;8.60;;;;;;;9.40;66.58;100383.84;30872939;28;97030;-63
2023/04/30 02:18:16;;;;;;;12.77;7.85;;;;;;;8.94;67.00;100396.53;30870923;28;96965;-63
2023/04/30 02:33:16;;;;;;;11.23;7.28;;;;;;;8.50;67.31;100415.06;30869093;28;96595;-63
2023/04/30 02:48:17;;;;;;;10.80;7.90;;;;;;;8.06;68.06;100413.06;30865563;28;105323;-63
2023/04/30 03:03:18;;;;;;;16.20;7.67;;;;;;;7.78;68.86;100439.59;30862805;28;96772;-62
2023/04/30 03:18:18;;;;;;;12.48;8.02;;;;;;;7.51;69.39;100453.66;30861860;28;108848;-63
2023/04/30 03:33:19;;;;;;;10.52;7.15;;;;;;;7.34;70.00;100474.63;30861806;28;107396;-62
2023/04/30 03:48:20;;;;;;;10.35;6.97;;;;;;;7.26;70.08;100477.97;30859702;28;96808;-62
2023/04/30 04:03:21;;;;;;;12.30;7.07;;;;;;;7.38;70.28;100496.34;30859520;28;97393;-62
2023/04/30 04:18:21;;;;;;;9.25;7.20;;;;;;;7.55;69.24;100518.66;30858264;28;96673;-62
2023/04/30 04:33:21;;;;;;;15.20;7.32;;;;;;;7.73;69.19;100538.13;30857026;28;104757;-62
2023/04/30 04:48:22;;;;;;;9.13;6.13;;;;;;;8.02;68.74;100553.13;30853280;28;110313;-62
2023/04/30 05:03:22;;;;;;;11.73;6.05;;;;;;;8.43;68.71;100580.25;30854522;28;97121;-62
2023/04/30 05:18:22;;;;;;;9.70;4.75;;;;;;;8.91;67.76;100593.41;30852505;28;97167;-62
2023/04/30 05:33:23;;;;;;;11.60;4.93;;;;;;;9.55;66.62;100598.69;30852355;28;97590;-62
2023/04/30 05:48:23;;;;;;;8.20;4.75;;;;;;;10.29;64.95;100604.50;30849395;28;96952;-62
2023/04/30 06:03:23;;;;;;;7.20;4.85;;;;;;;10.96;63.95;100615.34;30846875;28;110754;-62
2023/04/30 06:18:24;;;;;;;10.35;4.68;;;;;;;11.56;62.06;100626.75;30846994;28;96867;-62
2023/04/30 06:33:24;;;;;;;6.22;3.92;;;;;;;12.40;60.92;100639.03;30862262;28;97628;-62
2023/04/30 06:48:25;;;;;;;7.60;4.15;;;;;;;13.46;59.03;100645.75;30864177;28;105626;-62
2023/04/30 07:03:26;;;;;;;7.78;3.55;;;;;;;14.80;55.80;100658.56;30862228;28;97401;-63
2023/04/30 07:18:26;;;;;;;7.65;4.05;;;;;;;15.62;52.76;100671.88;30861384;28;96985;-63
2023/04/30 07:33:27;;;;;;;6.38;3.75;;;;;;;16.89;49.74;100678.22;30861667;28;96739;-63
2023/04/30 07:48:27;;;;;;;8.45;4.50;;;;;;;18.15;46.37;100681.41;30859257;28;96831;-63
2023/04/30 08:03:27;;;;;;;9.45;2.88;;;;;;;19.16;42.75;100699.00;30857868;28;105611;-62
2023/04/30 08:18:29;;;;;;;5.03;2.88;;;;;;;20.19;39.89;100699.84;30855945;28;97273;-63
2023/04/30 08:33:30;;;;;;;5.30;2.90;;;;;;;20.89;36.82;100692.50;30854685;28;96694;-63
2023/04/30 08:48:31;;;;;;;5.13;2.57;;;;;;;21.00;34.66;100696.34;30853339;28;96988;-63
2023/04/30 09:03:32;;;;;;;4.90;2.60;;;;;;;22.09;32.27;100700.81;30852644;28;97015;-63
2023/04/30 09:18:38;;;;;;;5.63;2.20;;;;;;;24.30;29.49;100710.66;30852966;28;97033;-63
2023/04/30 09:33:46;;;;;;;3.73;2.23;;;;;;;29.04;23.51;100721.50;30850212;28;96611;-63
2023/04/30 09:48:55;;;;;;;4.53;1.60;;;;;;;27.10;23.63;100728.66;30847454;28;96733;-63
2023/04/30 10:03:57;;;;;;;5.07;2.30;;;;;;;25.68;24.03;100708.03;30860442;28;97189;-63
2023/04/30 10:19:05;;;;;;;3.93;1.67;;;;;;;25.24;24.32;100701.81;30867799;28;96698;-63
2023/04/30 10:34:32;;;;;;;4.97;1.70;;;;;;;25.54;23.98;100700.53;30849163;28;98484;-63
2023/04/30 10:49:32;;;;;;;4.27;1.63;;;;;;;25.58;23.84;100688.81;30866050;28;96857;-63
2023/04/30 11:04:33;;;;;;;3.67;1.65;;;;;;;25.60;23.52;100677.66;30863767;28;96894;-63
2023/04/30 11:19:33;;;;;;;3.58;1.60;;;;;;;25.26;23.75;100677.84;30861611;28;103385;-63
2023/04/30 11:34:34;;;;;;;2.33;1.20;;;;;;;24.71;23.56;100672.28;30860992;28;96886;-63
2023/04/30 11:49:34;;;;;;;3.67;1.20;;;;;;;24.37;23.47;100676.97;30858301;28;96835;-63
2023/04/30 12:04:35;;;;;;;6.03;1.55;;;;;;;23.62;22.75;100682.56;30859358;28;96801;-63
2023/04/30 12:19:36;;;;;;;5.17;1.00;;;;;;;24.01;22.53;100673.75;30857861;28;97584;-65
2023/04/30 12:34:37;;;;;;;3.25;1.33;;;;;;;23.52;22.68;100668.81;30855438;28;96770;-63
2023/04/30 12:49:37;;;;;;;;;;;;;;;23.13;23.00;100664.84;30854265;28;96787;-63
2023/04/30 13:04:39;;;;;;;4.73;1.60;;;;;;;22.42;23.48;100664.19;30854807;28;96725;-63
2023/04/30 13:19:39;;;;;;;4.37;1.30;;;;;;;22.04;24.09;100660.03;30852215;28;96728;-63
2023/04/30 13:34:40;;;;;;;6.60;1.70;;;;;;;21.60;24.66;100647.56;30858311;28;96704;-63
2023/04/30 13:49:40;;;;;;;4.93;1.37;;;;;;;20.85;25.34;100643.38;30870283;28;108730;-63
2023/04/30 14:04:41;;;;;;;4.40;1.10;;;;;;;19.79;26.41;100644.19;30871834;28;96911;-63
2023/04/30 14:19:41;;;;;;;;;;;;;;;19.22;27.22;100622.56;30867547;28;96818;-63
2023/04/30 14:34:42;;;;;;;7.55;1.60;;;;;;;18.38;28.36;100616.22;30868388;28;96887;-63
2023/04/30 14:49:43;;;;;;;4.50;1.30;;;;;;;17.86;29.45;100629.53;30862380;28;97459;-63
2023/04/30 15:04:44;;;;;;;4.38;1.42;;;;;;;17.41;29.89;100624.75;30863827;28;106758;-62
2023/04/30 15:19:45;;;;;;;;;;;;;;;17.02;30.46;100620.94;30862299;28;97354;-62
2023/04/30 15:34:45;;;;;;;3.33;1.20;;;;;;;16.52;30.30;100613.03;30862962;28;96780;-63
2023/04/30 15:49:47;;;;;;;4.70;1.20;;;;;;;16.02;30.86;100616.66;30859908;28;97371;-62
2023/04/30 16:04:47;;;;;;;2.40;1.03;;;;;;;15.72;31.05;100613.31;30858003;28;96779;-62
2023/04/30 16:19:47;;;;;;;5.43;1.65;;;;;;;15.36;31.06;100603.47;30855646;28;112838;-63
2023/04/30 16:34:48;;;;;;;4.65;1.67;;;;;;;14.99;31.29;100594.63;30855042;28;109481;-62
2023/04/30 16:49:48;;;;;;;3.72;1.52;;;;;;;14.59;31.79;100592.25;30853200;28;113185;-62
2023/04/30 17:04:48;;;;;;;2.40;1.15;;;;;;;14.19;32.30;100608.63;30851489;28;112800;-63
2023/04/30 17:19:49;;;;;;;5.20;1.52;;;;;;;13.74;32.95;100614.91;30851032;28;96741;-63
2023/04/30 17:34:49;;;;;;;5.88;1.90;;;;;;;13.32;34.33;100633.94;30852848;28;96653;-63
2023/04/30 17:49:49;;;;;;;7.75;1.67;;;;;;;12.79;36.29;100636.38;30842824;28;97346;-62
2023/04/30 18:04:50;;;;;;;5.20;2.53;;;;;;;12.13;37.08;100628.59;30837544;28;111180;-62
2023/04/30 18:19:50;;;;;;;14.50;6.82;;;;;;;11.46;38.15;100640.25;30880225;28;97175;-62
2023/04/30 18:34:50;;;;;;;10.70;3.95;;;;;;;10.95;39.39;100647.47;30980119;28;112480;-61
2023/04/30 18:49:50;;;;;;;14.25;6.38;;;;;;;10.45;41.17;100662.41;30978190;28;101156;-61
2023/04/30 19:04:51;;;;;;;10.65;4.03;;;;;;;10.09;41.49;100665.97;30978860;28;96758;-61
2023/04/30 19:19:51;;;;;;;6.88;3.60;;;;;;;9.74;42.83;100678.31;30975844;28;96992;-62
2023/04/30 19:34:52;;;;;;;10.55;4.47;;;;;;;9.39;43.57;100685.31;30974693;28;97095;-61
2023/04/30 19:49:53;;;;;;;7.90;4.53;;;;;;;9.08;44.60;100693.59;30972900;28;97393;-61
2023/04/30 20:04:53;;;;;;;14.05;6.53;;;;;;;8.81;45.66;100703.22;30972823;28;96844;-61
2023/04/30 20:19:53;;;;;;;19.63;9.07;;;;;;;8.49;47.46;100708.09;31035360;28;102670;-61
2023/04/30 20:34:54;;;;;;;25.92;12.55;;;;;;;8.22;48.70;100722.94;31101565;28;96736;-61
2023/04/30 20:49:54;;;;;;;32.05;16.75;;;;;;;8.00;49.93;100732.88;31098878;28;102702;-61
2023/04/30 21:04:55;;;;;;;48.95;26.25;;;;;;;7.72;50.21;100734.53;31099215;28;97445;-61
2023/04/30 21:19:55;;;;;;;50.58;26.63;;;;;;;7.52;51.54;100737.19;31099285;28;96689;-60
2023/04/30 21:34:55;;;;;;;19.45;9.95;;;;;;;7.29;52.75;100749.81;31098881;28;97000;-60
2023/04/30 21:49:57;;;;;;;38.08;22.17;;;;;;;7.05;53.24;100743.06;31099424;28;97068;-62
2023/04/30 22:04:57;;;;;;;37.33;19.50;;;;;;;6.82;54.73;100757.44;31117470;28;96659;-60
2023/04/30 22:19:58;;;;;;;37.97;20.23;;;;;;;6.46;55.81;100755.13;31117982;28;97430;-62
2023/04/30 22:34:58;;;;;;;34.08;18.35;;;;;;;6.21;56.24;100753.72;31117385;28;96777;-60
2023/04/30 22:49:58;;;;;;;28.80;15.45;;;;;;;5.98;57.50;100756.47;31114967;28;96866;-61
2023/04/30 23:04:59;;;;;;;31.27;16.38;;;;;;;5.78;58.19;100760.69;31113157;28;100411;-61
2023/04/30 23:19:59;;;;;;;30.35;16.48;;;;;;;5.63;58.99;100757.53;31112931;28;102125;-59
2023/04/30 23:34:59;;;;;;;29.13;15.15;;;;;;;5.38;59.43;100756.81;31111872;28;97426;-60
2023/04/30 23:50:00;;;;;;;17.92;9.73;;;;;;;4.87;60.35;100747.63;31109111;28;111815;-60
